Prue, Oklahoma
Current Conditions -  °F | °C
As of 6:35 AM on Sunday 21 Dec 2014 (Local Time) from KOWP Reporting Station
Overcast Overcast  
Wind Chill: 40°   Ceiling: 500
Heat Index: 44°   Visibility: 7mi
Dew Point: 41°   Wind: 7mph
Humidity: 90%   Direction: 160°SSE
Pressure: 30.08"   Gusts: NA
Location:  36.24°N, 96.32°W
Report Text: KOWP 211235Z AUTO 16006KT 7SM BKN005 OVC009 07/05 A3008 RMK AO2 T00680052
Loading
Personal Weather Stations






























Interactive Weather Map New forecast layout! Learn more

10-Day Weather Forecast

Advertisements
Track Severe Weather on mobile